Airport View

Enter AWOS ICAO identifier for current METAR.

ex. KFNL

KCFS 080355Z AUTO 00000KT 7SM CLR 22/20 A2993 RMK AO2 T02210204

8 Jul 2020 04:14

Frequency: 119.275

Phone: 989-672-4182

Other Area AWOS: KHYX - KD95 - KBAX - KMBS

TAF KMBS 072320Z 0800/0824 20008KT P6SM SCT060 FM080100 27003KT P6SM FEW070 FM080900 VRB03KT P6SM SCT100 FM081600 VRB05KT P6SM SCT060 BKN100